sensor_id;sensor_type;location;lat;lon;timestamp;pressure;altitude;pressure_sealevel;temperature;humidity
54856;BME280;40748;53.168;5.800;2023-02-13T00:04:11;103868.98000000001;;;7.24;90.33
54856;BME280;40748;53.168;5.800;2023-02-13T00:09:11;103865.86;;;7.23;90.35
54856;BME280;40748;53.168;5.800;2023-02-13T00:16:41;103871.61000000002;;;7.22;90.38
54856;BME280;40748;53.168;5.800;2023-02-13T00:24:11;103868.18000000001;;;7.21;90.42
54856;BME280;40748;53.168;5.800;2023-02-13T00:29:11;103863.57;;;7.20;90.38
54856;BME280;40748;53.168;5.800;2023-02-13T00:34:11;103855.70999999999;;;7.19;90.35
54856;BME280;40748;53.168;5.800;2023-02-13T00:39:11;103855.90999999999;;;7.18;90.37
54856;BME280;40748;53.168;5.800;2023-02-13T00:46:41;103853.7;;;7.17;90.40
54856;BME280;40748;53.168;5.800;2023-02-13T00:54:11;103849.72;;;7.16;90.33
54856;BME280;40748;53.168;5.800;2023-02-13T00:56:41;103847.34000000001;;;7.15;90.33
54856;BME280;40748;53.168;5.800;2023-02-13T00:59:11;103850.98000000001;;;7.14;90.32
54856;BME280;40748;53.168;5.800;2023-02-13T01:11:41;103851.51000000001;;;7.13;90.34
54856;BME280;40748;53.168;5.800;2023-02-13T01:19:11;103859.58;;;7.12;90.29
54856;BME280;40748;53.168;5.800;2023-02-13T01:24:11;103861.18;;;7.11;90.25
54856;BME280;40748;53.168;5.800;2023-02-13T01:36:41;103852.65999999999;;;7.10;90.20
54856;BME280;40748;53.168;5.800;2023-02-13T01:39:11;103852.82999999999;;;7.09;90.25
54856;BME280;40748;53.168;5.800;2023-02-13T01:41:41;103852.82999999999;;;7.10;90.29
54856;BME280;40748;53.168;5.800;2023-02-13T01:46:41;103849.51000000001;;;7.09;90.26
54856;BME280;40748;53.168;5.800;2023-02-13T01:49:13;103847.79000000001;;;7.10;90.27
54856;BME280;40748;53.168;5.800;2023-02-13T01:51:41;103844.59999999999;;;7.09;90.30
54856;BME280;40748;53.168;5.800;2023-02-13T01:56:41;103843.55;;;7.08;90.25
54856;BME280;40748;53.168;5.800;2023-02-13T01:59:12;103838.23;;;7.07;90.24
54856;BME280;40748;53.168;5.800;2023-02-13T02:01:41;103842.19;;;7.05;90.21
54856;BME280;40748;53.168;5.800;2023-02-13T02:04:11;103843.24999999999;;;7.04;90.22
54856;BME280;40748;53.168;5.800;2023-02-13T02:06:41;103841.67;;;7.05;90.21
54856;BME280;40748;53.168;5.800;2023-02-13T02:11:47;103837.82;;;7.06;90.25
54856;BME280;40748;53.168;5.800;2023-02-13T02:14:11;103834.47000000002;;;7.07;90.24
54856;BME280;40748;53.168;5.800;2023-02-13T02:19:12;103833.73;;;7.06;90.25
54856;BME280;40748;53.168;5.800;2023-02-13T02:21:45;103831.48000000001;;;7.07;90.19
54856;BME280;40748;53.168;5.800;2023-02-13T02:26:49;103830.73;;;7.05;90.20
54856;BME280;40748;53.168;5.800;2023-02-13T02:39:12;103827.82999999999;;;7.05;90.27
54856;BME280;40748;53.168;5.800;2023-02-13T02:41:45;103827.53;;;7.06;90.30
54856;BME280;40748;53.168;5.800;2023-02-13T02:46:43;103821.8;;;7.05;90.21
54856;BME280;40748;53.168;5.800;2023-02-13T02:56:41;103813.62;;;7.03;90.22
54856;BME280;40748;53.168;5.800;2023-02-13T03:01:41;103806.64;;;7.02;90.17
54856;BME280;40748;53.168;5.800;2023-02-13T03:06:43;103804.81;;;7.01;90.17
54856;BME280;40748;53.168;5.800;2023-02-13T03:09:12;103800.65999999999;;;7.02;90.20
54856;BME280;40748;53.168;5.800;2023-02-13T03:14:12;103799.62000000001;;;7.01;90.19
54856;BME280;40748;53.168;5.800;2023-02-13T03:16:41;103800.94999999998;;;7.00;90.19
54856;BME280;40748;53.168;5.800;2023-02-13T03:21:43;103793.98000000001;;;7.01;90.24
54856;BME280;40748;53.168;5.800;2023-02-13T03:24:13;103791.43999999999;;;7.00;90.23
54856;BME280;40748;53.168;5.800;2023-02-13T03:36:43;103792.48;;;6.99;90.25
54856;BME280;40748;53.168;5.800;2023-02-13T03:41:41;103795.04;;;6.98;90.31
54856;BME280;40748;53.168;5.800;2023-02-13T03:44:12;103795.46;;;6.99;90.30
54856;BME280;40748;53.168;5.800;2023-02-13T03:46:41;103794.46;;;6.98;90.27
54856;BME280;40748;53.168;5.800;2023-02-13T03:49:12;103790.28000000001;;;6.96;90.29
54856;BME280;40748;53.168;5.800;2023-02-13T03:51:42;103790.15999999999;;;6.97;90.37
54856;BME280;40748;53.168;5.800;2023-02-13T03:54:12;103792.48;;;6.98;90.31
54856;BME280;40748;53.168;5.800;2023-02-13T04:01:42;103799.1;;;6.99;90.29
54856;BME280;40748;53.168;5.800;2023-02-13T04:04:12;103794.68;;;6.98;90.25
54856;BME280;40748;53.168;5.800;2023-02-13T04:06:41;103794.68;;;6.92;90.17
54856;BME280;40748;53.168;5.800;2023-02-13T04:09:11;103795.97000000002;;;6.95;90.34
54856;BME280;40748;53.168;5.800;2023-02-13T04:11:42;103794.8;;;6.94;90.21
54856;BME280;40748;53.168;5.800;2023-02-13T04:14:12;103794.1;;;6.95;90.12
54856;BME280;40748;53.168;5.800;2023-02-13T04:16:41;103798.23;;;6.93;90.07
54856;BME280;40748;53.168;5.800;2023-02-13T04:19:11;103798.19;;;6.94;90.16
54856;BME280;40748;53.168;5.800;2023-02-13T04:21:41;103791.67;;;6.96;90.22
54856;BME280;40748;53.168;5.800;2023-02-13T04:29:11;103786.39;;;6.97;90.28
54856;BME280;40748;53.168;5.800;2023-02-13T04:31:41;103777.84;;;6.98;90.26
54856;BME280;40748;53.168;5.800;2023-02-13T04:34:11;103779.86000000002;;;6.99;90.27
54856;BME280;40748;53.168;5.800;2023-02-13T04:39:11;103778.28;;;6.98;90.28
54856;BME280;40748;53.168;5.800;2023-02-13T04:41:41;103775.63;;;6.99;90.35
54856;BME280;40748;53.168;5.800;2023-02-13T04:44:11;103775.21999999999;;;7.00;90.27
54856;BME280;40748;53.168;5.800;2023-02-13T04:51:41;103771.45000000001;;;7.02;90.31
54856;BME280;40748;53.168;5.800;2023-02-13T04:56:41;103762.04000000001;;;7.01;90.31
54856;BME280;40748;53.168;5.800;2023-02-13T04:59:11;103765.41;;;7.02;90.32
54856;BME280;40748;53.168;5.800;2023-02-13T05:06:41;103768.31999999999;;;7.01;90.33
54856;BME280;40748;53.168;5.800;2023-02-13T05:09:11;103767.32999999999;;;7.03;90.33
54856;BME280;40748;53.168;5.800;2023-02-13T05:11:41;103767.15;;;7.00;90.31
54856;BME280;40748;53.168;5.800;2023-02-13T05:14:11;103762.83;;;6.98;90.32
54856;BME280;40748;53.168;5.800;2023-02-13T05:16:41;103764.06999999999;;;6.96;90.49
54856;BME280;40748;53.168;5.800;2023-02-13T05:19:11;103761.84000000001;;;7.00;90.64
54856;BME280;40748;53.168;5.800;2023-02-13T05:21:41;103759.92000000001;;;7.02;90.50
54856;BME280;40748;53.168;5.800;2023-02-13T05:24:11;103756.81999999999;;;7.03;90.38
54856;BME280;40748;53.168;5.800;2023-02-13T05:26:41;103760.78;;;7.02;90.33
54856;BME280;40748;53.168;5.800;2023-02-13T05:29:11;103762.33;;;7.03;90.37
54856;BME280;40748;53.168;5.800;2023-02-13T05:34:11;103767.54000000001;;;7.04;90.35
54856;BME280;40748;53.168;5.800;2023-02-13T05:36:41;103767.68999999999;;;7.03;90.33
54856;BME280;40748;53.168;5.800;2023-02-13T05:39:11;103768.91;;;6.97;90.36
54856;BME280;40748;53.168;5.800;2023-02-13T05:41:41;103767.96999999999;;;7.00;90.68
54856;BME280;40748;53.168;5.800;2023-02-13T05:44:11;103773.25;;;7.02;90.66
54856;BME280;40748;53.168;5.800;2023-02-13T05:46:41;103778.25;;;6.97;90.51
54856;BME280;40748;53.168;5.800;2023-02-13T05:49:11;103779.14000000001;;;7.04;90.66
54856;BME280;40748;53.168;5.800;2023-02-13T05:51:41;103781.65;;;7.02;90.51
54856;BME280;40748;53.168;5.800;2023-02-13T05:54:11;103786.28000000001;;;7.01;90.62
54856;BME280;40748;53.168;5.800;2023-02-13T05:56:41;103784.84000000001;;;7.02;90.67
54856;BME280;40748;53.168;5.800;2023-02-13T05:59:11;103789.18000000001;;;7.01;90.59
54856;BME280;40748;53.168;5.800;2023-02-13T06:01:41;103796.83;;;6.98;90.82
54856;BME280;40748;53.168;5.800;2023-02-13T06:06:41;103796.3;;;7.00;90.86
54856;BME280;40748;53.168;5.800;2023-02-13T06:09:11;103793.98000000001;;;6.97;90.74
54856;BME280;40748;53.168;5.800;2023-02-13T06:14:11;103792.51999999999;;;6.96;90.97
54856;BME280;40748;53.168;5.800;2023-02-13T06:16:41;103797.51000000001;;;6.98;90.91
54856;BME280;40748;53.168;5.800;2023-02-13T06:19:11;103797.95999999999;;;6.91;90.74
54856;BME280;40748;53.168;5.800;2023-02-13T06:21:41;103799.48999999999;;;6.92;90.99
54856;BME280;40748;53.168;5.800;2023-02-13T06:24:11;103801.73;;;6.89;91.23
54856;BME280;40748;53.168;5.800;2023-02-13T06:29:11;103809.86;;;6.88;91.12
54856;BME280;40748;53.168;5.800;2023-02-13T06:34:11;103805.04000000001;;;6.82;91.26
54856;BME280;40748;53.168;5.800;2023-02-13T06:36:41;103810.77;;;6.83;91.47
54856;BME280;40748;53.168;5.800;2023-02-13T06:39:11;103814.12;;;6.85;91.45
54856;BME280;40748;53.168;5.800;2023-02-13T06:44:12;103813.71999999999;;;6.80;91.44
54856;BME280;40748;53.168;5.800;2023-02-13T06:46:41;103812.57;;;6.79;91.62
54856;BME280;40748;53.168;5.800;2023-02-13T06:49:11;103807.02000000002;;;6.81;91.71
54856;BME280;40748;53.168;5.800;2023-02-13T06:51:41;103812.01000000001;;;6.83;91.68
54856;BME280;40748;53.168;5.800;2023-02-13T06:54:11;103808.75000000001;;;6.82;91.60
54856;BME280;40748;53.168;5.800;2023-02-13T06:56:41;103804.56999999999;;;6.79;91.67
54856;BME280;40748;53.168;5.800;2023-02-13T06:59:11;103804.28;;;6.80;91.85
54856;BME280;40748;53.168;5.800;2023-02-13T07:01:41;103805.14;;;6.73;91.85
54856;BME280;40748;53.168;5.800;2023-02-13T07:04:11;103807.09999999999;;;6.75;92.12
54856;BME280;40748;53.168;5.800;2023-02-13T07:06:41;103817.42;;;6.74;92.09
54856;BME280;40748;53.168;5.800;2023-02-13T07:09:11;103812.93000000001;;;6.79;92.12
54856;BME280;40748;53.168;5.800;2023-02-13T07:11:41;103814.52999999998;;;6.74;92.03
54856;BME280;40748;53.168;5.800;2023-02-13T07:14:11;103815.58;;;6.77;92.13
54856;BME280;40748;53.168;5.800;2023-02-13T07:16:41;103817.68;;;6.78;92.32
54856;BME280;40748;53.168;5.800;2023-02-13T07:19:11;103824.68;;;6.82;92.20
54856;BME280;40748;53.168;5.800;2023-02-13T07:21:41;103821.34000000001;;;6.83;92.01
54856;BME280;40748;53.168;5.800;2023-02-13T07:24:11;103826.6;;;6.75;91.96
54856;BME280;40748;53.168;5.800;2023-02-13T07:26:41;103831.54;;;6.78;92.36
54856;BME280;40748;53.168;5.800;2023-02-13T07:29:11;103829.05;;;6.79;92.26
54856;BME280;40748;53.168;5.800;2023-02-13T07:31:41;103829.05;;;6.78;92.27
54856;BME280;40748;53.168;5.800;2023-02-13T07:34:11;103832.58;;;6.80;92.31
54856;BME280;40748;53.168;5.800;2023-02-13T07:36:41;103834.05;;;6.83;92.36
54856;BME280;40748;53.168;5.800;2023-02-13T07:39:11;103833.97;;;6.81;92.30
54856;BME280;40748;53.168;5.800;2023-02-13T07:41:41;103838.88999999998;;;6.79;92.41
54856;BME280;40748;53.168;5.800;2023-02-13T07:44:11;103843.82;;;6.77;92.72
54856;BME280;40748;53.168;5.800;2023-02-13T07:46:41;103841.42;;;6.81;92.81
54856;BME280;40748;53.168;5.800;2023-02-13T07:49:11;103841.24999999999;;;6.87;92.64
54856;BME280;40748;53.168;5.800;2023-02-13T07:51:41;103846.39;;;6.89;92.53
54856;BME280;40748;53.168;5.800;2023-02-13T07:54:11;103844.34000000001;;;6.90;92.42
54856;BME280;40748;53.168;5.800;2023-02-13T07:56:41;103842.4;;;6.91;92.48
54856;BME280;40748;53.168;5.800;2023-02-13T07:59:11;103843.75;;;6.92;92.44
54856;BME280;40748;53.168;5.800;2023-02-13T08:01:41;103845.40999999999;;;6.89;92.63
54856;BME280;40748;53.168;5.800;2023-02-13T08:04:11;103847.72;;;6.86;92.91
54856;BME280;40748;53.168;5.800;2023-02-13T08:06:41;103848.54000000001;;;6.83;93.07
54856;BME280;40748;53.168;5.800;2023-02-13T08:09:13;103844.79;;;6.85;93.23
54856;BME280;40748;53.168;5.800;2023-02-13T08:11:41;103844.91;;;6.88;93.32
54856;BME280;40748;53.168;5.800;2023-02-13T08:14:11;103845.04;;;6.87;93.26
54856;BME280;40748;53.168;5.800;2023-02-13T08:16:41;103842.4;;;6.86;93.30
54856;BME280;40748;53.168;5.800;2023-02-13T08:19:11;103837.46;;;6.83;93.40
54856;BME280;40748;53.168;5.800;2023-02-13T08:21:41;103840.78;;;6.88;93.61
54856;BME280;40748;53.168;5.800;2023-02-13T08:24:11;103846.85999999999;;;6.89;93.57
54856;BME280;40748;53.168;5.800;2023-02-13T08:26:41;103845.17000000001;;;6.93;93.57
54856;BME280;40748;53.168;5.800;2023-02-13T08:29:11;103839.98999999999;;;6.96;93.47
54856;BME280;40748;53.168;5.800;2023-02-13T08:31:41;103839.98999999999;;;6.99;93.47
54856;BME280;40748;53.168;5.800;2023-02-13T08:34:11;103842.79;;;6.97;93.46
54856;BME280;40748;53.168;5.800;2023-02-13T08:36:41;103845.37;;;7.00;93.54
54856;BME280;40748;53.168;5.800;2023-02-13T08:39:11;103850.72;;;7.03;93.51
54856;BME280;40748;53.168;5.800;2023-02-13T08:41:41;103848.76999999999;;;7.07;93.52
54856;BME280;40748;53.168;5.800;2023-02-13T08:44:11;103853.91;;;7.05;93.52
54856;BME280;40748;53.168;5.800;2023-02-13T08:46:41;103854.10999999999;;;7.06;93.64
54856;BME280;40748;53.168;5.800;2023-02-13T08:49:11;103852.53;;;7.02;93.63
54856;BME280;40748;53.168;5.800;2023-02-13T08:51:41;103855.54999999999;;;7.06;93.90
54856;BME280;40748;53.168;5.800;2023-02-13T08:54:11;103855.46999999999;;;7.10;93.86
54856;BME280;40748;53.168;5.800;2023-02-13T08:56:41;103854.01999999999;;;7.12;93.67
54856;BME280;40748;53.168;5.800;2023-02-13T08:59:11;103855.81999999999;;;7.16;93.72
54856;BME280;40748;53.168;5.800;2023-02-13T09:01:41;103853.42000000001;;;7.18;93.63
54856;BME280;40748;53.168;5.800;2023-02-13T09:06:41;103857.42;;;7.21;93.81
54856;BME280;40748;53.168;5.800;2023-02-13T09:09:11;103856.73999999999;;;7.20;93.75
54856;BME280;40748;53.168;5.800;2023-02-13T09:11:41;103858.06;;;7.26;93.98
54856;BME280;40748;53.168;5.800;2023-02-13T09:14:11;103855.40000000001;;;7.27;93.90
54856;BME280;40748;53.168;5.800;2023-02-13T09:16:41;103851.92;;;7.28;94.00
54856;BME280;40748;53.168;5.800;2023-02-13T09:19:11;103848.71;;;7.27;94.01
54856;BME280;40748;53.168;5.800;2023-02-13T09:21:41;103849.48;;;7.30;94.23
54856;BME280;40748;53.168;5.800;2023-02-13T09:24:11;103851.0;;;7.32;94.21
54856;BME280;40748;53.168;5.800;2023-02-13T09:26:41;103853.46999999999;;;7.35;94.25
54856;BME280;40748;53.168;5.800;2023-02-13T09:29:11;103854.31000000001;;;7.40;94.23
54856;BME280;40748;53.168;5.800;2023-02-13T09:31:41;103857.48000000001;;;7.43;94.23
54856;BME280;40748;53.168;5.800;2023-02-13T09:34:11;103850.45;;;7.44;94.15
54856;BME280;40748;53.168;5.800;2023-02-13T09:36:41;103852.32;;;7.47;94.27
54856;BME280;40748;53.168;5.800;2023-02-13T09:39:11;103849.96;;;7.50;94.27
54856;BME280;40748;53.168;5.800;2023-02-13T09:41:41;103853.58000000002;;;7.52;94.24
54856;BME280;40748;53.168;5.800;2023-02-13T09:44:11;103851.25;;;7.51;94.25
54856;BME280;40748;53.168;5.800;2023-02-13T09:46:41;103849.84;;;7.50;94.36
54856;BME280;40748;53.168;5.800;2023-02-13T09:49:12;103844.43000000001;;;7.51;94.45
54856;BME280;40748;53.168;5.800;2023-02-13T09:51:41;103845.28;;;7.53;94.51
54856;BME280;40748;53.168;5.800;2023-02-13T09:54:12;103847.68;;;7.54;94.48
54856;BME280;40748;53.168;5.800;2023-02-13T09:56:43;103848.47;;;7.56;94.51
54856;BME280;40748;53.168;5.800;2023-02-13T09:59:14;103848.84;;;7.61;94.45
54856;BME280;40748;53.168;5.800;2023-02-13T10:01:43;103843.69999999998;;;7.60;94.43
54856;BME280;40748;53.168;5.800;2023-02-13T10:04:15;103845.31999999999;;;7.59;94.60
54856;BME280;40748;53.168;5.800;2023-02-13T10:06:42;103841.28;;;7.56;94.79
54856;BME280;40748;53.168;5.800;2023-02-13T10:09:12;103843.12;;;7.63;94.96
54856;BME280;40748;53.168;5.800;2023-02-13T10:11:44;103846.08;;;7.68;94.78
54856;BME280;40748;53.168;5.800;2023-02-13T10:14:13;103850.35;;;7.69;94.74
54856;BME280;40748;53.168;5.800;2023-02-13T10:16:42;103847.03;;;7.66;94.80
54856;BME280;40748;53.168;5.800;2023-02-13T10:19:13;103850.93;;;7.70;94.99
54856;BME280;40748;53.168;5.800;2023-02-13T10:24:11;103846.89000000001;;;7.65;94.95
54856;BME280;40748;53.168;5.800;2023-02-13T10:26:41;103848.21999999999;;;7.70;95.23
54856;BME280;40748;53.168;5.800;2023-02-13T10:29:13;103848.44;;;7.65;95.46
54856;BME280;40748;53.168;5.800;2023-02-13T10:31:41;103848.44;;;7.70;95.46
54856;BME280;40748;53.168;5.800;2023-02-13T10:34:11;103845.12999999999;;;7.73;95.52
54856;BME280;40748;53.168;5.800;2023-02-13T10:36:42;103841.95999999999;;;7.76;95.47
54856;BME280;40748;53.168;5.800;2023-02-13T10:39:15;103841.68999999999;;;7.78;95.42
54856;BME280;40748;53.168;5.800;2023-02-13T10:41:43;103842.79;;;7.80;95.45
54856;BME280;40748;53.168;5.800;2023-02-13T10:44:16;103840.75;;;7.76;95.38
54856;BME280;40748;53.168;5.800;2023-02-13T10:46:43;103842.04;;;7.79;95.49
54856;BME280;40748;53.168;5.800;2023-02-13T10:49:17;103839.52999999998;;;7.81;95.70
54856;BME280;40748;53.168;5.800;2023-02-13T10:51:42;103841.14;;;7.86;95.80
54856;BME280;40748;53.168;5.800;2023-02-13T10:54:16;103839.25;;;7.84;95.58
54856;BME280;40748;53.168;5.800;2023-02-13T10:56:41;103839.06999999999;;;7.88;95.74
54856;BME280;40748;53.168;5.800;2023-02-13T10:59:15;103839.29000000001;;;7.90;95.76
54856;BME280;40748;53.168;5.800;2023-02-13T11:04:12;103838.09000000001;;;7.99;95.62
54856;BME280;40748;53.168;5.800;2023-02-13T11:06:42;103831.57;;;8.01;95.56
54856;BME280;40748;53.168;5.800;2023-02-13T11:09:11;103825.51000000001;;;8.04;95.58
54856;BME280;40748;53.168;5.800;2023-02-13T11:11:41;103824.06000000001;;;8.09;95.53
54856;BME280;40748;53.168;5.800;2023-02-13T11:14:12;103819.26000000001;;;8.16;95.78
54856;BME280;40748;53.168;5.800;2023-02-13T11:16:46;103818.14;;;8.18;95.73
54856;BME280;40748;53.168;5.800;2023-02-13T11:19:16;103813.62;;;8.14;95.56
54856;BME280;40748;53.168;5.800;2023-02-13T11:21:41;103814.11;;;8.12;95.92
54856;BME280;40748;53.168;5.800;2023-02-13T11:24:16;103812.22;;;8.24;96.24
54856;BME280;40748;53.168;5.800;2023-02-13T11:29:15;103803.16;;;8.28;96.03
54856;BME280;40748;53.168;5.800;2023-02-13T11:31:41;103803.01999999999;;;8.37;95.69
54856;BME280;40748;53.168;5.800;2023-02-13T11:36:41;103795.26000000001;;;8.39;95.61
54856;BME280;40748;53.168;5.800;2023-02-13T11:39:16;103798.54000000001;;;8.40;95.80
54856;BME280;40748;53.168;5.800;2023-02-13T11:41:42;103797.40999999999;;;8.46;95.73
54856;BME280;40748;53.168;5.800;2023-02-13T11:44:17;103794.36;;;8.51;95.57
54856;BME280;40748;53.168;5.800;2023-02-13T11:46:42;103796.53000000001;;;8.47;95.66
54856;BME280;40748;53.168;5.800;2023-02-13T11:49:14;103802.78000000001;;;8.50;95.74
54856;BME280;40748;53.168;5.800;2023-02-13T11:51:41;103797.48999999999;;;8.60;95.92
54856;BME280;40748;53.168;5.800;2023-02-13T11:54:18;103802.64;;;8.66;96.07
54856;BME280;40748;53.168;5.800;2023-02-13T11:56:49;103798.36;;;8.67;95.53
54856;BME280;40748;53.168;5.800;2023-02-13T11:59:11;103797.61000000002;;;8.72;95.64
54856;BME280;40748;53.168;5.800;2023-02-13T12:01:41;103794.2;;;8.79;95.49
54856;BME280;40748;53.168;5.800;2023-02-13T12:06:46;103789.43;;;8.87;95.54
54856;BME280;40748;53.168;5.800;2023-02-13T12:09:11;103788.98999999999;;;8.93;95.53
54856;BME280;40748;53.168;5.800;2023-02-13T12:11:43;103780.0;;;8.97;95.19
54856;BME280;40748;53.168;5.800;2023-02-13T12:14:13;103780.0;;;9.03;95.19
54856;BME280;40748;53.168;5.800;2023-02-13T12:21:44;103767.35;;;9.07;95.33
54856;BME280;40748;53.168;5.800;2023-02-13T12:24:13;103764.58;;;9.14;95.45
54856;BME280;40748;53.168;5.800;2023-02-13T12:26:41;103765.38;;;9.18;95.13
54856;BME280;40748;53.168;5.800;2023-02-13T12:29:15;103765.38;;;9.14;95.13
54856;BME280;40748;53.168;5.800;2023-02-13T12:31:44;103761.76000000001;;;9.17;94.80
54856;BME280;40748;53.168;5.800;2023-02-13T12:34:19;103756.81999999999;;;9.23;95.21
54856;BME280;40748;53.168;5.800;2023-02-13T12:36:43;103756.86;;;9.18;94.93
54856;BME280;40748;53.168;5.800;2023-02-13T12:39:15;103751.72;;;9.23;94.75
54856;BME280;40748;53.168;5.800;2023-02-13T12:41:45;103749.31999999999;;;9.25;94.74
54856;BME280;40748;53.168;5.800;2023-02-13T12:44:16;103749.31999999999;;;9.28;94.74
54856;BME280;40748;53.168;5.800;2023-02-13T12:46:43;103740.98;;;9.33;94.51
54856;BME280;40748;53.168;5.800;2023-02-13T12:49:15;103740.98;;;9.36;94.99
54856;BME280;40748;53.168;5.800;2023-02-13T12:51:44;103739.42;;;9.43;94.88
54856;BME280;40748;53.168;5.800;2023-02-13T12:54:22;103738.56000000001;;;9.53;94.62
54856;BME280;40748;53.168;5.800;2023-02-13T12:56:46;103734.73;;;9.54;94.44
54856;BME280;40748;53.168;5.800;2023-02-13T12:59:12;103729.31000000001;;;9.55;94.78
54856;BME280;40748;53.168;5.800;2023-02-13T13:04:13;103726.65;;;9.70;94.77
54856;BME280;40748;53.168;5.800;2023-02-13T13:06:48;103724.21999999999;;;9.75;94.69
54856;BME280;40748;53.168;5.800;2023-02-13T13:09:16;103721.19;;;9.82;94.91
54856;BME280;40748;53.168;5.800;2023-02-13T13:14:13;103720.94;;;9.96;94.64
54856;BME280;40748;53.168;5.800;2023-02-13T13:16:42;103720.09000000001;;;10.01;94.84
54856;BME280;40748;53.168;5.800;2023-02-13T13:19:12;103720.20999999999;;;10.11;95.16
54856;BME280;40748;53.168;5.800;2023-02-13T13:21:43;103719.23999999999;;;10.14;95.32
54856;BME280;40748;53.168;5.800;2023-02-13T13:24:17;103709.47000000002;;;10.19;95.22
54856;BME280;40748;53.168;5.800;2023-02-13T13:26:41;103709.34999999999;;;10.25;95.10
54856;BME280;40748;53.168;5.800;2023-02-13T13:29:11;103700.65999999999;;;10.33;94.82
54856;BME280;40748;53.168;5.800;2023-02-13T13:31:41;103702.32;;;10.42;94.86
54856;BME280;40748;53.168;5.800;2023-02-13T13:34:13;103701.68000000001;;;10.49;94.79
54856;BME280;40748;53.168;5.800;2023-02-13T13:36:42;103704.04000000001;;;10.50;94.96
54856;BME280;40748;53.168;5.800;2023-02-13T13:39:14;103694.45000000001;;;10.58;94.90
54856;BME280;40748;53.168;5.800;2023-02-13T13:44:15;103691.42;;;10.60;94.96
54856;BME280;40748;53.168;5.800;2023-02-13T13:46:45;103690.75;;;10.63;94.91
54856;BME280;40748;53.168;5.800;2023-02-13T13:49:16;103685.03;;;10.62;94.48
54856;BME280;40748;53.168;5.800;2023-02-13T13:51:41;103679.44;;;10.64;94.04
54856;BME280;40748;53.168;5.800;2023-02-13T13:59:15;103674.83;;;10.60;94.12
54856;BME280;40748;53.168;5.800;2023-02-13T14:01:41;103675.17;;;10.56;94.09
54856;BME280;40748;53.168;5.800;2023-02-13T14:11:42;103664.79;;;10.62;93.64
54856;BME280;40748;53.168;5.800;2023-02-13T14:16:41;103652.01;;;10.61;93.17
54856;BME280;40748;53.168;5.800;2023-02-13T14:21:41;103649.55;;;10.66;93.33
54856;BME280;40748;53.168;5.800;2023-02-13T14:24:11;103643.95999999999;;;10.67;93.08
54856;BME280;40748;53.168;5.800;2023-02-13T14:26:41;103644.31;;;10.64;93.13
54856;BME280;40748;53.168;5.800;2023-02-13T14:31:42;103649.52;;;10.63;93.03
54856;BME280;40748;53.168;5.800;2023-02-13T14:34:16;103642.02;;;10.62;92.86
54856;BME280;40748;53.168;5.800;2023-02-13T14:36:41;103642.31999999999;;;10.59;92.86
54856;BME280;40748;53.168;5.800;2023-02-13T14:39:16;103647.81;;;10.62;92.91
54856;BME280;40748;53.168;5.800;2023-02-13T14:41:43;103648.25;;;10.61;92.64
54856;BME280;40748;53.168;5.800;2023-02-13T14:46:41;103653.02999999998;;;10.62;92.59
54856;BME280;40748;53.168;5.800;2023-02-13T14:51:43;103655.09;;;10.63;92.59
54856;BME280;40748;53.168;5.800;2023-02-13T14:54:14;103651.48;;;10.62;92.52
54856;BME280;40748;53.168;5.800;2023-02-13T14:56:41;103651.81;;;10.51;92.48
54856;BME280;40748;53.168;5.800;2023-02-13T14:59:12;103650.12;;;10.55;92.45
54856;BME280;40748;53.168;5.800;2023-02-13T15:01:43;103652.57999999999;;;10.53;92.38
54856;BME280;40748;53.168;5.800;2023-02-13T15:04:11;103647.55;;;10.52;92.02
54856;BME280;40748;53.168;5.800;2023-02-13T15:06:42;103649.82;;;10.59;91.94
54856;BME280;40748;53.168;5.800;2023-02-13T15:09:15;103653.08;;;10.56;91.50
54856;BME280;40748;53.168;5.800;2023-02-13T15:11:42;103644.03;;;10.55;91.38
54856;BME280;40748;53.168;5.800;2023-02-13T15:16:41;103650.55;;;10.56;91.04
54856;BME280;40748;53.168;5.800;2023-02-13T15:19:13;103648.28;;;10.55;90.94
54856;BME280;40748;53.168;5.800;2023-02-13T15:24:11;103647.18000000001;;;10.54;90.87
54856;BME280;40748;53.168;5.800;2023-02-13T15:26:41;103644.48999999999;;;10.56;90.98
54856;BME280;40748;53.168;5.800;2023-02-13T15:31:41;103646.97000000002;;;10.61;90.87
54856;BME280;40748;53.168;5.800;2023-02-13T15:39:14;103638.83;;;10.58;90.35
54856;BME280;40748;53.168;5.800;2023-02-13T15:41:41;103637.67;;;10.59;90.39
54856;BME280;40748;53.168;5.800;2023-02-13T15:44:15;103638.15999999999;;;10.57;90.29
54856;BME280;40748;53.168;5.800;2023-02-13T15:46:41;103635.40000000001;;;10.58;90.30
54856;BME280;40748;53.168;5.800;2023-02-13T15:49:13;103633.37;;;10.59;90.30
54856;BME280;40748;53.168;5.800;2023-02-13T15:51:41;103633.08;;;10.54;90.14
54856;BME280;40748;53.168;5.800;2023-02-13T15:59:11;103642.79;;;10.52;89.90
54856;BME280;40748;53.168;5.800;2023-02-13T16:04:12;103640.39;;;10.50;89.87
54856;BME280;40748;53.168;5.800;2023-02-13T16:06:41;103640.41;;;10.49;89.85
54856;BME280;40748;53.168;5.800;2023-02-13T16:09:21;103640.7;;;10.43;89.96
54856;BME280;40748;53.168;5.800;2023-02-13T16:11:42;103636.45;;;10.42;90.03
54856;BME280;40748;53.168;5.800;2023-02-13T16:14:13;103634.62;;;10.41;89.99
54856;BME280;40748;53.168;5.800;2023-02-13T16:16:42;103634.31;;;10.37;89.80
54856;BME280;40748;53.168;5.800;2023-02-13T16:24:12;103634.95;;;10.30;89.54
54856;BME280;40748;53.168;5.800;2023-02-13T16:26:41;103632.78;;;10.28;89.60